sensor_id;sensor_type;location;lat;lon;timestamp;P1;durP1;ratioP1;P2;durP2;ratioP2
12689;SDS011;6409;56.294;14.480;2023-04-16T00:01:58;4.83;;;3.50;;
12689;SDS011;6409;56.294;14.480;2023-04-16T00:04:25;4.53;;;2.90;;
12689;SDS011;6409;56.294;14.480;2023-04-16T00:06:53;3.57;;;2.80;;
12689;SDS011;6409;56.294;14.480;2023-04-16T00:09:20;4.37;;;3.17;;
12689;SDS011;6409;56.294;14.480;2023-04-16T00:11:47;13.67;;;3.07;;
12689;SDS011;6409;56.294;14.480;2023-04-16T00:14:14;3.77;;;3.10;;
12689;SDS011;6409;56.294;14.480;2023-04-16T00:16:40;4.23;;;3.13;;
12689;SDS011;6409;56.294;14.480;2023-04-16T00:19:09;5.40;;;3.10;;
12689;SDS011;6409;56.294;14.480;2023-04-16T00:21:36;4.80;;;3.30;;
12689;SDS011;6409;56.294;14.480;2023-04-16T00:24:03;3.40;;;3.10;;
12689;SDS011;6409;56.294;14.480;2023-04-16T00:26:30;3.90;;;3.20;;
12689;SDS011;6409;56.294;14.480;2023-04-16T00:28:57;5.20;;;3.27;;
12689;SDS011;6409;56.294;14.480;2023-04-16T00:31:27;3.87;;;3.10;;
12689;SDS011;6409;56.294;14.480;2023-04-16T00:33:55;3.87;;;3.13;;
12689;SDS011;6409;56.294;14.480;2023-04-16T00:36:24;6.00;;;2.60;;
12689;SDS011;6409;56.294;14.480;2023-04-16T00:38:52;4.20;;;3.40;;
12689;SDS011;6409;56.294;14.480;2023-04-16T00:41:19;3.93;;;3.17;;
12689;SDS011;6409;56.294;14.480;2023-04-16T00:43:47;4.23;;;2.90;;
12689;SDS011;6409;56.294;14.480;2023-04-16T00:46:14;3.93;;;3.27;;
12689;SDS011;6409;56.294;14.480;2023-04-16T00:48:42;4.13;;;2.93;;
12689;SDS011;6409;56.294;14.480;2023-04-16T00:51:09;5.93;;;4.10;;
12689;SDS011;6409;56.294;14.480;2023-04-16T00:53:38;4.23;;;3.13;;
12689;SDS011;6409;56.294;14.480;2023-04-16T00:56:05;3.87;;;2.83;;
12689;SDS011;6409;56.294;14.480;2023-04-16T00:58:33;8.33;;;3.53;;
12689;SDS011;6409;56.294;14.480;2023-04-16T01:01:00;3.20;;;2.57;;
12689;SDS011;6409;56.294;14.480;2023-04-16T01:03:29;3.03;;;2.57;;
12689;SDS011;6409;56.294;14.480;2023-04-16T01:06:01;4.63;;;3.00;;
12689;SDS011;6409;56.294;14.480;2023-04-16T01:08:28;2.93;;;2.63;;
12689;SDS011;6409;56.294;14.480;2023-04-16T01:10:56;5.03;;;3.50;;
12689;SDS011;6409;56.294;14.480;2023-04-16T01:13:23;4.97;;;3.07;;
12689;SDS011;6409;56.294;14.480;2023-04-16T01:15:50;4.33;;;3.20;;
12689;SDS011;6409;56.294;14.480;2023-04-16T01:18:18;5.43;;;2.83;;
12689;SDS011;6409;56.294;14.480;2023-04-16T01:20:47;4.77;;;3.27;;
12689;SDS011;6409;56.294;14.480;2023-04-16T01:23:15;3.63;;;2.50;;
12689;SDS011;6409;56.294;14.480;2023-04-16T01:25:42;3.60;;;2.93;;
12689;SDS011;6409;56.294;14.480;2023-04-16T01:28:09;3.93;;;2.90;;
12689;SDS011;6409;56.294;14.480;2023-04-16T01:30:36;5.07;;;3.00;;
12689;SDS011;6409;56.294;14.480;2023-04-16T01:33:04;5.10;;;3.07;;
12689;SDS011;6409;56.294;14.480;2023-04-16T01:35:32;3.40;;;2.63;;
12689;SDS011;6409;56.294;14.480;2023-04-16T01:38:00;4.60;;;3.00;;
12689;SDS011;6409;56.294;14.480;2023-04-16T01:40:27;2.80;;;2.50;;
12689;SDS011;6409;56.294;14.480;2023-04-16T01:42:54;3.17;;;2.60;;
12689;SDS011;6409;56.294;14.480;2023-04-16T01:45:21;5.87;;;3.13;;
12689;SDS011;6409;56.294;14.480;2023-04-16T01:47:48;3.73;;;2.57;;
12689;SDS011;6409;56.294;14.480;2023-04-16T01:50:16;7.47;;;3.00;;
12689;SDS011;6409;56.294;14.480;2023-04-16T01:52:43;5.50;;;2.90;;
12689;SDS011;6409;56.294;14.480;2023-04-16T01:55:11;2.70;;;2.47;;
12689;SDS011;6409;56.294;14.480;2023-04-16T01:57:38;2.50;;;2.30;;
12689;SDS011;6409;56.294;14.480;2023-04-16T02:00:06;2.80;;;2.50;;
12689;SDS011;6409;56.294;14.480;2023-04-16T02:02:33;2.60;;;2.40;;
12689;SDS011;6409;56.294;14.480;2023-04-16T02:05:01;5.10;;;2.80;;
12689;SDS011;6409;56.294;14.480;2023-04-16T02:07:28;3.47;;;2.70;;
12689;SDS011;6409;56.294;14.480;2023-04-16T02:09:55;3.60;;;2.90;;
12689;SDS011;6409;56.294;14.480;2023-04-16T02:12:24;5.13;;;2.83;;
12689;SDS011;6409;56.294;14.480;2023-04-16T02:14:51;3.90;;;2.53;;
12689;SDS011;6409;56.294;14.480;2023-04-16T02:17:18;5.23;;;2.53;;
12689;SDS011;6409;56.294;14.480;2023-04-16T02:19:45;3.27;;;2.77;;
12689;SDS011;6409;56.294;14.480;2023-04-16T02:22:12;3.90;;;2.63;;
12689;SDS011;6409;56.294;14.480;2023-04-16T02:24:39;5.43;;;3.10;;
12689;SDS011;6409;56.294;14.480;2023-04-16T02:27:06;2.90;;;2.60;;
12689;SDS011;6409;56.294;14.480;2023-04-16T02:29:34;5.47;;;2.63;;
12689;SDS011;6409;56.294;14.480;2023-04-16T02:32:01;3.87;;;2.30;;
12689;SDS011;6409;56.294;14.480;2023-04-16T02:34:28;3.43;;;2.60;;
12689;SDS011;6409;56.294;14.480;2023-04-16T02:36:55;2.47;;;2.27;;
12689;SDS011;6409;56.294;14.480;2023-04-16T02:39:23;3.00;;;2.70;;
12689;SDS011;6409;56.294;14.480;2023-04-16T02:41:50;2.77;;;2.57;;
12689;SDS011;6409;56.294;14.480;2023-04-16T02:44:17;4.17;;;2.67;;
12689;SDS011;6409;56.294;14.480;2023-04-16T02:46:46;3.40;;;2.90;;
12689;SDS011;6409;56.294;14.480;2023-04-16T02:49:13;2.73;;;2.47;;
12689;SDS011;6409;56.294;14.480;2023-04-16T02:51:40;2.67;;;2.47;;
12689;SDS011;6409;56.294;14.480;2023-04-16T02:54:07;5.13;;;3.30;;
12689;SDS011;6409;56.294;14.480;2023-04-16T02:56:34;3.27;;;2.43;;
12689;SDS011;6409;56.294;14.480;2023-04-16T02:59:01;2.60;;;2.40;;
12689;SDS011;6409;56.294;14.480;2023-04-16T03:01:28;8.50;;;2.70;;
12689;SDS011;6409;56.294;14.480;2023-04-16T03:03:56;2.73;;;2.30;;
12689;SDS011;6409;56.294;14.480;2023-04-16T03:06:23;3.83;;;2.27;;
12689;SDS011;6409;56.294;14.480;2023-04-16T03:08:51;3.67;;;2.70;;
12689;SDS011;6409;56.294;14.480;2023-04-16T03:11:18;6.53;;;2.73;;
12689;SDS011;6409;56.294;14.480;2023-04-16T03:13:44;5.17;;;2.63;;
12689;SDS011;6409;56.294;14.480;2023-04-16T03:16:11;3.33;;;2.30;;
12689;SDS011;6409;56.294;14.480;2023-04-16T03:18:38;3.30;;;2.30;;
12689;SDS011;6409;56.294;14.480;2023-04-16T03:21:07;2.57;;;2.30;;
12689;SDS011;6409;56.294;14.480;2023-04-16T03:23:34;2.63;;;2.33;;
12689;SDS011;6409;56.294;14.480;2023-04-16T03:26:01;3.83;;;2.13;;
12689;SDS011;6409;56.294;14.480;2023-04-16T03:28:27;3.07;;;2.23;;
12689;SDS011;6409;56.294;14.480;2023-04-16T03:30:54;2.30;;;2.10;;
12689;SDS011;6409;56.294;14.480;2023-04-16T03:33:21;3.67;;;2.83;;
12689;SDS011;6409;56.294;14.480;2023-04-16T03:35:53;2.97;;;2.63;;
12689;SDS011;6409;56.294;14.480;2023-04-16T03:38:23;3.57;;;3.13;;
12689;SDS011;6409;56.294;14.480;2023-04-16T03:40:50;3.20;;;2.50;;
12689;SDS011;6409;56.294;14.480;2023-04-16T03:43:17;3.10;;;2.67;;
12689;SDS011;6409;56.294;14.480;2023-04-16T03:45:44;2.97;;;2.30;;
12689;SDS011;6409;56.294;14.480;2023-04-16T03:48:11;2.93;;;2.73;;
12689;SDS011;6409;56.294;14.480;2023-04-16T03:50:38;4.40;;;2.83;;
12689;SDS011;6409;56.294;14.480;2023-04-16T03:53:05;3.70;;;2.67;;
12689;SDS011;6409;56.294;14.480;2023-04-16T03:55:34;2.30;;;2.03;;
12689;SDS011;6409;56.294;14.480;2023-04-16T03:58:01;2.20;;;2.00;;
12689;SDS011;6409;56.294;14.480;2023-04-16T04:00:29;3.40;;;2.70;;
12689;SDS011;6409;56.294;14.480;2023-04-16T04:02:56;2.53;;;2.27;;
12689;SDS011;6409;56.294;14.480;2023-04-16T04:05:23;3.07;;;2.43;;
12689;SDS011;6409;56.294;14.480;2023-04-16T04:07:50;2.60;;;2.37;;
12689;SDS011;6409;56.294;14.480;2023-04-16T04:10:17;2.53;;;2.30;;
12689;SDS011;6409;56.294;14.480;2023-04-16T04:12:45;3.83;;;2.00;;
12689;SDS011;6409;56.294;14.480;2023-04-16T04:15:12;2.10;;;2.00;;
12689;SDS011;6409;56.294;14.480;2023-04-16T04:17:39;2.97;;;2.60;;
12689;SDS011;6409;56.294;14.480;2023-04-16T04:20:06;2.63;;;2.40;;
12689;SDS011;6409;56.294;14.480;2023-04-16T04:22:34;9.77;;;2.17;;
12689;SDS011;6409;56.294;14.480;2023-04-16T04:25:01;2.93;;;2.43;;
12689;SDS011;6409;56.294;14.480;2023-04-16T04:27:27;2.20;;;1.97;;
12689;SDS011;6409;56.294;14.480;2023-04-16T04:29:56;5.90;;;3.60;;
12689;SDS011;6409;56.294;14.480;2023-04-16T04:32:23;2.10;;;2.00;;
12689;SDS011;6409;56.294;14.480;2023-04-16T04:34:50;2.60;;;2.40;;
12689;SDS011;6409;56.294;14.480;2023-04-16T04:37:17;2.30;;;2.17;;
12689;SDS011;6409;56.294;14.480;2023-04-16T04:39:44;4.20;;;2.30;;
12689;SDS011;6409;56.294;14.480;2023-04-16T04:42:11;2.87;;;2.50;;
12689;SDS011;6409;56.294;14.480;2023-04-16T04:44:38;4.67;;;2.20;;
12689;SDS011;6409;56.294;14.480;2023-04-16T04:47:06;4.13;;;2.30;;
12689;SDS011;6409;56.294;14.480;2023-04-16T04:49:33;2.80;;;2.23;;
12689;SDS011;6409;56.294;14.480;2023-04-16T04:52:00;5.47;;;2.27;;
12689;SDS011;6409;56.294;14.480;2023-04-16T04:54:27;3.13;;;2.17;;
12689;SDS011;6409;56.294;14.480;2023-04-16T04:56:55;4.30;;;2.50;;
12689;SDS011;6409;56.294;14.480;2023-04-16T04:59:22;2.73;;;2.27;;
12689;SDS011;6409;56.294;14.480;2023-04-16T05:01:50;4.97;;;2.30;;
12689;SDS011;6409;56.294;14.480;2023-04-16T05:04:18;3.57;;;2.30;;
12689;SDS011;6409;56.294;14.480;2023-04-16T05:06:45;6.87;;;2.73;;
12689;SDS011;6409;56.294;14.480;2023-04-16T05:09:12;3.23;;;2.60;;
12689;SDS011;6409;56.294;14.480;2023-04-16T05:11:39;3.77;;;2.20;;
12689;SDS011;6409;56.294;14.480;2023-04-16T05:14:07;2.60;;;2.20;;
12689;SDS011;6409;56.294;14.480;2023-04-16T05:16:34;3.40;;;2.23;;
12689;SDS011;6409;56.294;14.480;2023-04-16T05:19:02;2.30;;;2.10;;
12689;SDS011;6409;56.294;14.480;2023-04-16T05:21:30;3.30;;;2.43;;
12689;SDS011;6409;56.294;14.480;2023-04-16T05:23:57;3.17;;;2.20;;
12689;SDS011;6409;56.294;14.480;2023-04-16T05:26:24;4.03;;;2.87;;
12689;SDS011;6409;56.294;14.480;2023-04-16T05:28:51;2.30;;;2.10;;
12689;SDS011;6409;56.294;14.480;2023-04-16T05:31:18;2.83;;;2.50;;
12689;SDS011;6409;56.294;14.480;2023-04-16T05:33:45;3.43;;;2.63;;
12689;SDS011;6409;56.294;14.480;2023-04-16T05:36:12;4.90;;;2.20;;
12689;SDS011;6409;56.294;14.480;2023-04-16T05:38:40;5.37;;;2.80;;
12689;SDS011;6409;56.294;14.480;2023-04-16T05:41:07;2.90;;;2.30;;
12689;SDS011;6409;56.294;14.480;2023-04-16T05:43:34;5.10;;;2.60;;
12689;SDS011;6409;56.294;14.480;2023-04-16T05:46:01;5.60;;;2.73;;
12689;SDS011;6409;56.294;14.480;2023-04-16T05:48:28;4.73;;;2.50;;
12689;SDS011;6409;56.294;14.480;2023-04-16T05:50:55;2.77;;;2.40;;
12689;SDS011;6409;56.294;14.480;2023-04-16T05:53:22;2.47;;;2.27;;
12689;SDS011;6409;56.294;14.480;2023-04-16T05:55:50;4.90;;;2.23;;
12689;SDS011;6409;56.294;14.480;2023-04-16T05:58:17;4.97;;;2.70;;
12689;SDS011;6409;56.294;14.480;2023-04-16T06:00:44;2.40;;;2.20;;
12689;SDS011;6409;56.294;14.480;2023-04-16T06:03:11;2.43;;;2.17;;
12689;SDS011;6409;56.294;14.480;2023-04-16T06:05:38;2.63;;;2.17;;
12689;SDS011;6409;56.294;14.480;2023-04-16T06:08:05;5.43;;;3.10;;
12689;SDS011;6409;56.294;14.480;2023-04-16T06:10:32;3.80;;;2.13;;
12689;SDS011;6409;56.294;14.480;2023-04-16T06:13:00;2.27;;;2.10;;
12689;SDS011;6409;56.294;14.480;2023-04-16T06:15:27;3.30;;;2.63;;
12689;SDS011;6409;56.294;14.480;2023-04-16T06:17:54;2.47;;;2.27;;
12689;SDS011;6409;56.294;14.480;2023-04-16T06:20:21;2.40;;;2.20;;
12689;SDS011;6409;56.294;14.480;2023-04-16T06:22:48;3.17;;;2.60;;
12689;SDS011;6409;56.294;14.480;2023-04-16T06:25:15;2.50;;;2.30;;
12689;SDS011;6409;56.294;14.480;2023-04-16T06:27:42;2.13;;;1.97;;
12689;SDS011;6409;56.294;14.480;2023-04-16T06:30:11;3.40;;;3.17;;
12689;SDS011;6409;56.294;14.480;2023-04-16T06:32:39;5.50;;;2.93;;
12689;SDS011;6409;56.294;14.480;2023-04-16T06:35:07;2.97;;;2.70;;
12689;SDS011;6409;56.294;14.480;2023-04-16T06:37:34;2.90;;;2.47;;
12689;SDS011;6409;56.294;14.480;2023-04-16T06:40:02;2.37;;;2.20;;
12689;SDS011;6409;56.294;14.480;2023-04-16T06:42:29;4.37;;;3.10;;
12689;SDS011;6409;56.294;14.480;2023-04-16T06:44:56;4.10;;;2.93;;
12689;SDS011;6409;56.294;14.480;2023-04-16T06:47:24;2.50;;;2.30;;
12689;SDS011;6409;56.294;14.480;2023-04-16T06:49:52;2.50;;;2.30;;
12689;SDS011;6409;56.294;14.480;2023-04-16T06:52:19;5.83;;;2.60;;
12689;SDS011;6409;56.294;14.480;2023-04-16T06:54:46;3.97;;;2.80;;
12689;SDS011;6409;56.294;14.480;2023-04-16T06:57:13;2.50;;;2.30;;
12689;SDS011;6409;56.294;14.480;2023-04-16T06:59:40;3.07;;;2.37;;
12689;SDS011;6409;56.294;14.480;2023-04-16T07:02:08;3.73;;;2.50;;
12689;SDS011;6409;56.294;14.480;2023-04-16T07:04:36;3.60;;;2.60;;
12689;SDS011;6409;56.294;14.480;2023-04-16T07:07:03;3.93;;;2.60;;
12689;SDS011;6409;56.294;14.480;2023-04-16T07:09:30;3.20;;;2.90;;
12689;SDS011;6409;56.294;14.480;2023-04-16T07:11:57;3.13;;;2.53;;
12689;SDS011;6409;56.294;14.480;2023-04-16T07:14:24;4.03;;;2.47;;
12689;SDS011;6409;56.294;14.480;2023-04-16T07:16:51;3.20;;;2.90;;
12689;SDS011;6409;56.294;14.480;2023-04-16T07:19:18;5.17;;;2.80;;
12689;SDS011;6409;56.294;14.480;2023-04-16T07:21:47;3.07;;;2.50;;
12689;SDS011;6409;56.294;14.480;2023-04-16T07:24:13;2.87;;;2.67;;
12689;SDS011;6409;56.294;14.480;2023-04-16T07:26:41;3.67;;;2.70;;
12689;SDS011;6409;56.294;14.480;2023-04-16T07:29:08;3.40;;;3.10;;
12689;SDS011;6409;56.294;14.480;2023-04-16T07:31:35;3.00;;;2.73;;
12689;SDS011;6409;56.294;14.480;2023-04-16T07:34:02;2.93;;;2.60;;
12689;SDS011;6409;56.294;14.480;2023-04-16T07:36:29;3.37;;;3.07;;
12689;SDS011;6409;56.294;14.480;2023-04-16T07:38:57;3.03;;;2.80;;
12689;SDS011;6409;56.294;14.480;2023-04-16T07:41:24;2.80;;;2.53;;
12689;SDS011;6409;56.294;14.480;2023-04-16T07:43:51;3.03;;;2.77;;
12689;SDS011;6409;56.294;14.480;2023-04-16T07:46:18;3.83;;;3.37;;
12689;SDS011;6409;56.294;14.480;2023-04-16T07:48:45;3.50;;;3.17;;
12689;SDS011;6409;56.294;14.480;2023-04-16T07:51:12;4.30;;;3.40;;
12689;SDS011;6409;56.294;14.480;2023-04-16T07:53:39;3.00;;;2.80;;
12689;SDS011;6409;56.294;14.480;2023-04-16T07:56:08;3.60;;;3.30;;
12689;SDS011;6409;56.294;14.480;2023-04-16T07:58:36;3.50;;;3.20;;
12689;SDS011;6409;56.294;14.480;2023-04-16T08:01:02;5.30;;;3.27;;
12689;SDS011;6409;56.294;14.480;2023-04-16T08:03:29;5.23;;;3.77;;
12689;SDS011;6409;56.294;14.480;2023-04-16T08:05:57;3.47;;;3.17;;
12689;SDS011;6409;56.294;14.480;2023-04-16T08:08:24;5.53;;;3.90;;
12689;SDS011;6409;56.294;14.480;2023-04-16T08:10:51;4.40;;;3.97;;
12689;SDS011;6409;56.294;14.480;2023-04-16T08:13:21;3.90;;;3.60;;
12689;SDS011;6409;56.294;14.480;2023-04-16T08:15:48;3.90;;;3.60;;
12689;SDS011;6409;56.294;14.480;2023-04-16T08:18:15;4.10;;;3.80;;
12689;SDS011;6409;56.294;14.480;2023-04-16T08:20:42;3.43;;;3.20;;
12689;SDS011;6409;56.294;14.480;2023-04-16T08:23:09;3.60;;;3.30;;
12689;SDS011;6409;56.294;14.480;2023-04-16T08:25:36;6.73;;;4.10;;
12689;SDS011;6409;56.294;14.480;2023-04-16T08:28:03;3.60;;;3.30;;
12689;SDS011;6409;56.294;14.480;2023-04-16T08:30:32;3.43;;;3.23;;
12689;SDS011;6409;56.294;14.480;2023-04-16T08:32:59;3.80;;;3.50;;
12689;SDS011;6409;56.294;14.480;2023-04-16T08:35:26;3.97;;;3.53;;
12689;SDS011;6409;56.294;14.480;2023-04-16T08:37:53;4.00;;;3.63;;
12689;SDS011;6409;56.294;14.480;2023-04-16T08:40:22;3.90;;;3.60;;
12689;SDS011;6409;56.294;14.480;2023-04-16T08:42:51;3.70;;;3.40;;
12689;SDS011;6409;56.294;14.480;2023-04-16T08:45:19;3.63;;;3.40;;
12689;SDS011;6409;56.294;14.480;2023-04-16T08:47:50;3.80;;;3.50;;
12689;SDS011;6409;56.294;14.480;2023-04-16T08:50:21;4.17;;;3.77;;
12689;SDS011;6409;56.294;14.480;2023-04-16T08:52:49;4.57;;;4.17;;
12689;SDS011;6409;56.294;14.480;2023-04-16T08:55:17;4.50;;;4.10;;
12689;SDS011;6409;56.294;14.480;2023-04-16T08:57:46;6.17;;;4.27;;
12689;SDS011;6409;56.294;14.480;2023-04-16T09:00:15;4.87;;;4.07;;
12689;SDS011;6409;56.294;14.480;2023-04-16T09:02:42;6.23;;;4.37;;
12689;SDS011;6409;56.294;14.480;2023-04-16T09:05:13;3.73;;;3.43;;
12689;SDS011;6409;56.294;14.480;2023-04-16T09:07:42;4.67;;;4.23;;
12689;SDS011;6409;56.294;14.480;2023-04-16T09:10:10;7.07;;;4.07;;
12689;SDS011;6409;56.294;14.480;2023-04-16T09:12:38;4.20;;;3.90;;
12689;SDS011;6409;56.294;14.480;2023-04-16T09:15:06;5.33;;;4.80;;
12689;SDS011;6409;56.294;14.480;2023-04-16T09:17:35;3.77;;;3.50;;
12689;SDS011;6409;56.294;14.480;2023-04-16T09:20:02;8.53;;;4.40;;
12689;SDS011;6409;56.294;14.480;2023-04-16T09:22:34;5.63;;;4.30;;
12689;SDS011;6409;56.294;14.480;2023-04-16T09:25:01;7.40;;;4.00;;
12689;SDS011;6409;56.294;14.480;2023-04-16T09:27:28;4.17;;;3.87;;
12689;SDS011;6409;56.294;14.480;2023-04-16T09:29:55;4.87;;;4.37;;
12689;SDS011;6409;56.294;14.480;2023-04-16T09:32:23;5.10;;;4.60;;
12689;SDS011;6409;56.294;14.480;2023-04-16T09:34:54;4.77;;;4.37;;
12689;SDS011;6409;56.294;14.480;2023-04-16T09:37:22;10.93;;;4.73;;
12689;SDS011;6409;56.294;14.480;2023-04-16T09:39:55;4.63;;;4.30;;
12689;SDS011;6409;56.294;14.480;2023-04-16T09:42:23;5.00;;;4.50;;
12689;SDS011;6409;56.294;14.480;2023-04-16T09:44:52;5.53;;;4.37;;
12689;SDS011;6409;56.294;14.480;2023-04-16T09:47:20;4.90;;;4.50;;
12689;SDS011;6409;56.294;14.480;2023-04-16T09:49:47;8.67;;;4.57;;
12689;SDS011;6409;56.294;14.480;2023-04-16T09:52:15;4.57;;;4.27;;
12689;SDS011;6409;56.294;14.480;2023-04-16T09:54:46;4.90;;;4.60;;
12689;SDS011;6409;56.294;14.480;2023-04-16T09:57:18;5.43;;;4.93;;
12689;SDS011;6409;56.294;14.480;2023-04-16T09:59:46;5.17;;;4.67;;
12689;SDS011;6409;56.294;14.480;2023-04-16T10:02:13;4.77;;;4.37;;
12689;SDS011;6409;56.294;14.480;2023-04-16T10:04:44;4.80;;;4.40;;
12689;SDS011;6409;56.294;14.480;2023-04-16T10:07:11;5.80;;;4.30;;
12689;SDS011;6409;56.294;14.480;2023-04-16T10:09:39;5.47;;;4.60;;
12689;SDS011;6409;56.294;14.480;2023-04-16T10:12:06;6.10;;;5.50;;
12689;SDS011;6409;56.294;14.480;2023-04-16T10:14:34;5.17;;;4.73;;
12689;SDS011;6409;56.294;14.480;2023-04-16T10:17:02;3.90;;;3.60;;
12689;SDS011;6409;56.294;14.480;2023-04-16T10:19:30;4.80;;;4.40;;
12689;SDS011;6409;56.294;14.480;2023-04-16T10:21:57;4.27;;;3.97;;
12689;SDS011;6409;56.294;14.480;2023-04-16T10:24:25;4.47;;;3.73;;
12689;SDS011;6409;56.294;14.480;2023-04-16T10:26:52;4.30;;;3.90;;
12689;SDS011;6409;56.294;14.480;2023-04-16T10:29:20;4.97;;;4.20;;
12689;SDS011;6409;56.294;14.480;2023-04-16T10:31:49;4.30;;;3.97;;
12689;SDS011;6409;56.294;14.480;2023-04-16T10:34:16;4.93;;;4.43;;
12689;SDS011;6409;56.294;14.480;2023-04-16T10:36:47;5.23;;;4.50;;
12689;SDS011;6409;56.294;14.480;2023-04-16T10:39:17;4.50;;;4.10;;
12689;SDS011;6409;56.294;14.480;2023-04-16T10:41:45;4.60;;;4.20;;
12689;SDS011;6409;56.294;14.480;2023-04-16T10:44:12;8.37;;;4.33;;
12689;SDS011;6409;56.294;14.480;2023-04-16T10:46:43;6.20;;;4.57;;
12689;SDS011;6409;56.294;14.480;2023-04-16T10:49:15;5.37;;;4.70;;
12689;SDS011;6409;56.294;14.480;2023-04-16T10:51:51;5.40;;;4.93;;
12689;SDS011;6409;56.294;14.480;2023-04-16T10:54:19;4.90;;;4.40;;
12689;SDS011;6409;56.294;14.480;2023-04-16T10:56:49;4.70;;;3.90;;
12689;SDS011;6409;56.294;14.480;2023-04-16T10:59:17;4.80;;;4.40;;
12689;SDS011;6409;56.294;14.480;2023-04-16T11:01:45;4.37;;;4.07;;
12689;SDS011;6409;56.294;14.480;2023-04-16T11:04:26;4.83;;;4.33;;
12689;SDS011;6409;56.294;14.480;2023-04-16T11:07:05;4.73;;;4.33;;
12689;SDS011;6409;56.294;14.480;2023-04-16T11:09:46;4.53;;;4.13;;
12689;SDS011;6409;56.294;14.480;2023-04-16T11:12:17;6.60;;;4.80;;
12689;SDS011;6409;56.294;14.480;2023-04-16T11:14:46;4.70;;;4.30;;
12689;SDS011;6409;56.294;14.480;2023-04-16T11:17:14;11.80;;;4.50;;
12689;SDS011;6409;56.294;14.480;2023-04-16T11:19:43;6.17;;;5.03;;
12689;SDS011;6409;56.294;14.480;2023-04-16T11:22:13;4.70;;;4.20;;
12689;SDS011;6409;56.294;14.480;2023-04-16T11:24:42;6.73;;;5.03;;
12689;SDS011;6409;56.294;14.480;2023-04-16T11:27:11;4.70;;;4.33;;
12689;SDS011;6409;56.294;14.480;2023-04-16T11:29:38;5.50;;;5.10;;
12689;SDS011;6409;56.294;14.480;2023-04-16T11:32:05;5.03;;;4.67;;
12689;SDS011;6409;56.294;14.480;2023-04-16T11:34:32;10.13;;;5.17;;
12689;SDS011;6409;56.294;14.480;2023-04-16T11:37:01;5.23;;;4.73;;
12689;SDS011;6409;56.294;14.480;2023-04-16T11:39:28;6.03;;;4.87;;
12689;SDS011;6409;56.294;14.480;2023-04-16T11:41:55;5.07;;;4.63;;
12689;SDS011;6409;56.294;14.480;2023-04-16T11:44:22;5.60;;;4.80;;
12689;SDS011;6409;56.294;14.480;2023-04-16T11:46:50;4.90;;;4.50;;
12689;SDS011;6409;56.294;14.480;2023-04-16T11:49:25;6.43;;;4.80;;
12689;SDS011;6409;56.294;14.480;2023-04-16T11:51:52;5.00;;;4.50;;
12689;SDS011;6409;56.294;14.480;2023-04-16T11:54:22;7.67;;;5.10;;
12689;SDS011;6409;56.294;14.480;2023-04-16T11:56:50;5.47;;;5.07;;
12689;SDS011;6409;56.294;14.480;2023-04-16T11:59:18;5.07;;;4.67;;
12689;SDS011;6409;56.294;14.480;2023-04-16T12:01:47;4.80;;;4.50;;
12689;SDS011;6409;56.294;14.480;2023-04-16T12:04:15;7.70;;;4.90;;
12689;SDS011;6409;56.294;14.480;2023-04-16T12:09:32;5.37;;;4.90;;
12689;SDS011;6409;56.294;14.480;2023-04-16T12:12:00;4.83;;;4.43;;
12689;SDS011;6409;56.294;14.480;2023-04-16T12:14:27;4.90;;;4.50;;
12689;SDS011;6409;56.294;14.480;2023-04-16T12:16:54;8.50;;;4.33;;
12689;SDS011;6409;56.294;14.480;2023-04-16T12:19:21;4.70;;;4.20;;
12689;SDS011;6409;56.294;14.480;2023-04-16T12:21:48;4.57;;;4.17;;
12689;SDS011;6409;56.294;14.480;2023-04-16T12:24:17;6.20;;;5.07;;
12689;SDS011;6409;56.294;14.480;2023-04-16T12:26:51;8.57;;;5.00;;
12689;SDS011;6409;56.294;14.480;2023-04-16T12:29:27;4.70;;;4.37;;
12689;SDS011;6409;56.294;14.480;2023-04-16T12:31:54;5.00;;;4.50;;
12689;SDS011;6409;56.294;14.480;2023-04-16T12:34:21;7.27;;;4.80;;
12689;SDS011;6409;56.294;14.480;2023-04-16T12:36:48;5.00;;;4.57;;
12689;SDS011;6409;56.294;14.480;2023-04-16T12:39:33;5.10;;;4.70;;
12689;SDS011;6409;56.294;14.480;2023-04-16T12:42:02;12.30;;;5.00;;
12689;SDS011;6409;56.294;14.480;2023-04-16T12:44:30;6.13;;;4.83;;
12689;SDS011;6409;56.294;14.480;2023-04-16T12:46:57;5.20;;;4.80;;
12689;SDS011;6409;56.294;14.480;2023-04-16T12:49:24;5.17;;;4.73;;
12689;SDS011;6409;56.294;14.480;2023-04-16T12:51:51;4.50;;;4.20;;
12689;SDS011;6409;56.294;14.480;2023-04-16T12:54:18;5.20;;;4.80;;
12689;SDS011;6409;56.294;14.480;2023-04-16T12:56:45;5.27;;;4.77;;
12689;SDS011;6409;56.294;14.480;2023-04-16T12:59:13;11.93;;;5.07;;
12689;SDS011;6409;56.294;14.480;2023-04-16T13:01:41;4.67;;;4.37;;
12689;SDS011;6409;56.294;14.480;2023-04-16T13:04:08;6.23;;;4.43;;
12689;SDS011;6409;56.294;14.480;2023-04-16T13:06:35;5.40;;;4.70;;
12689;SDS011;6409;56.294;14.480;2023-04-16T13:09:02;5.90;;;4.63;;
12689;SDS011;6409;56.294;14.480;2023-04-16T13:11:29;5.07;;;4.67;;
12689;SDS011;6409;56.294;14.480;2023-04-16T13:13:57;5.70;;;4.73;;
12689;SDS011;6409;56.294;14.480;2023-04-16T13:16:25;5.40;;;4.90;;
12689;SDS011;6409;56.294;14.480;2023-04-16T13:18:52;9.13;;;4.83;;
12689;SDS011;6409;56.294;14.480;2023-04-16T13:21:19;5.17;;;4.67;;
12689;SDS011;6409;56.294;14.480;2023-04-16T13:23:47;6.00;;;4.80;;
12689;SDS011;6409;56.294;14.480;2023-04-16T13:26:14;5.30;;;4.80;;
12689;SDS011;6409;56.294;14.480;2023-04-16T13:28:41;10.10;;;5.33;;
12689;SDS011;6409;56.294;14.480;2023-04-16T13:31:08;5.43;;;4.93;;
12689;SDS011;6409;56.294;14.480;2023-04-16T13:33:37;5.33;;;4.83;;
12689;SDS011;6409;56.294;14.480;2023-04-16T13:36:04;11.13;;;5.30;;
12689;SDS011;6409;56.294;14.480;2023-04-16T13:38:31;5.50;;;5.00;;
12689;SDS011;6409;56.294;14.480;2023-04-16T13:40:58;5.23;;;4.73;;
12689;SDS011;6409;56.294;14.480;2023-04-16T13:43:25;5.57;;;5.03;;
12689;SDS011;6409;56.294;14.480;2023-04-16T13:45:52;6.63;;;5.37;;
12689;SDS011;6409;56.294;14.480;2023-04-16T13:48:19;5.80;;;5.20;;
12689;SDS011;6409;56.294;14.480;2023-04-16T13:50:48;5.93;;;5.27;;
12689;SDS011;6409;56.294;14.480;2023-04-16T13:53:15;6.63;;;5.07;;
12689;SDS011;6409;56.294;14.480;2023-04-16T13:55:42;5.20;;;4.83;;
12689;SDS011;6409;56.294;14.480;2023-04-16T13:58:09;5.60;;;5.17;;
12689;SDS011;6409;56.294;14.480;2023-04-16T14:00:36;6.07;;;5.47;;
12689;SDS011;6409;56.294;14.480;2023-04-16T14:03:03;6.60;;;5.50;;
12689;SDS011;6409;56.294;14.480;2023-04-16T14:05:30;5.80;;;5.30;;
12689;SDS011;6409;56.294;14.480;2023-04-16T14:07:59;6.20;;;5.33;;
12689;SDS011;6409;56.294;14.480;2023-04-16T14:10:26;10.17;;;4.97;;
12689;SDS011;6409;56.294;14.480;2023-04-16T14:12:53;4.87;;;4.57;;
12689;SDS011;6409;56.294;14.480;2023-04-16T14:15:20;8.20;;;4.83;;
12689;SDS011;6409;56.294;14.480;2023-04-16T14:17:47;5.20;;;4.70;;
12689;SDS011;6409;56.294;14.480;2023-04-16T14:20:14;5.10;;;4.70;;
12689;SDS011;6409;56.294;14.480;2023-04-16T14:22:41;6.20;;;4.43;;
12689;SDS011;6409;56.294;14.480;2023-04-16T14:25:10;5.23;;;4.67;;
12689;SDS011;6409;56.294;14.480;2023-04-16T14:27:37;5.37;;;4.87;;
12689;SDS011;6409;56.294;14.480;2023-04-16T14:30:05;5.77;;;5.27;;
12689;SDS011;6409;56.294;14.480;2023-04-16T14:32:33;10.47;;;4.80;;
12689;SDS011;6409;56.294;14.480;2023-04-16T14:35:00;5.37;;;4.87;;
12689;SDS011;6409;56.294;14.480;2023-04-16T14:37:27;5.97;;;5.13;;
12689;SDS011;6409;56.294;14.480;2023-04-16T14:39:54;4.93;;;4.53;;
12689;SDS011;6409;56.294;14.480;2023-04-16T14:42:22;5.40;;;4.90;;
12689;SDS011;6409;56.294;14.480;2023-04-16T14:44:50;6.00;;;5.03;;
12689;SDS011;6409;56.294;14.480;2023-04-16T14:47:17;5.27;;;4.77;;
12689;SDS011;6409;56.294;14.480;2023-04-16T14:49:44;5.63;;;5.13;;
12689;SDS011;6409;56.294;14.480;2023-04-16T14:52:11;6.53;;;5.40;;
12689;SDS011;6409;56.294;14.480;2023-04-16T14:54:38;6.60;;;4.97;;